Van Buren, Indiana
Current Conditions -  °F | °C
As of 10:15 PM on Thursday 27 Nov 2014 (Local Time) from KHHG Reporting Station
Clear Clear  
Wind Chill: 15°   Ceiling: Unl
Heat Index: 23°   Visibility: 10mi
Dew Point: 18°   Wind: 7mph
Humidity: 80%   Direction: 280°W
Pressure: 30.36"   Gusts: NA
Location:  40.62°N, 85.5°W
Report Text: KHHG 280315Z AUTO 28006KT 10SM CLR M05/M08 A3036 RMK AO2 T10511080
Loading
Personal Weather Stations






























Interactive Weather Map New forecast layout! Learn more

10-Day Weather Forecast

Advertisements
Track Severe Weather on mobile